createdAt,value
2018-03-19T00:00:14.811Z,28.03
2018-03-19T00:02:42.369Z,28.63
2018-03-19T00:05:10.040Z,28.50
2018-03-19T00:07:37.622Z,28.47
2018-03-19T00:10:06.846Z,26.80
2018-03-19T00:12:35.352Z,27.87
2018-03-19T00:15:02.994Z,28.80
2018-03-19T00:17:30.583Z,28.93
2018-03-19T00:19:58.167Z,28.40
2018-03-19T00:22:25.728Z,28.10
2018-03-19T00:24:53.301Z,29.00
2018-03-19T00:27:39.440Z,28.47
2018-03-19T00:32:59.780Z,27.47
2018-03-19T00:35:27.999Z,28.13
2018-03-19T00:37:55.659Z,27.80
2018-03-19T00:40:23.249Z,28.20
2018-03-19T00:42:52.747Z,28.20
2018-03-19T00:45:20.377Z,29.30
2018-03-19T00:47:48.697Z,29.37
2018-03-19T00:50:17.214Z,29.90
2018-03-19T00:52:45.686Z,30.50
2018-03-19T00:55:13.325Z,30.40
2018-03-19T00:57:41.004Z,29.33
2018-03-19T01:00:08.607Z,30.20
2018-03-19T01:02:36.171Z,28.23
2018-03-19T01:05:04.717Z,28.60
2018-03-19T01:07:33.460Z,29.27
2018-03-19T01:10:02.947Z,29.87
2018-03-19T01:12:30.551Z,31.03
2018-03-19T01:14:58.943Z,28.90
2018-03-19T01:17:26.566Z,29.80
2018-03-19T01:19:54.139Z,30.17
2018-03-19T01:22:22.649Z,28.37
2018-03-19T01:24:51.037Z,28.80
2018-03-19T01:27:20.555Z,29.93
2018-03-19T01:29:49.094Z,28.17
2018-03-19T01:35:27.351Z,29.87
2018-03-19T01:37:55.008Z,30.57
2018-03-19T01:40:23.369Z,30.03
2018-03-19T01:42:51.927Z,30.73
2018-03-19T01:45:19.504Z,30.33
2018-03-19T01:47:48.085Z,30.80
2018-03-19T01:50:15.631Z,29.67
2018-03-19T01:52:50.748Z,28.07
2018-03-19T01:55:18.320Z,30.40
2018-03-19T01:57:45.901Z,26.63
2018-03-19T02:00:13.488Z,29.63
2018-03-19T02:02:41.025Z,28.77
2018-03-19T02:05:08.569Z,29.83
2018-03-19T02:07:36.999Z,29.03
2018-03-19T02:10:06.534Z,27.83
2018-03-19T02:12:34.149Z,26.87
2018-03-19T02:15:01.750Z,28.90
2018-03-19T02:17:29.367Z,28.23
2018-03-19T02:19:56.956Z,30.37
2018-03-19T02:22:24.568Z,29.67
2018-03-19T02:24:52.190Z,30.63
2018-03-19T02:27:20.675Z,29.40
2018-03-19T02:29:48.299Z,29.03
2018-03-19T02:32:16.665Z,28.50
2018-03-19T02:34:44.170Z,29.73
2018-03-19T02:37:11.747Z,28.47
2018-03-19T02:39:39.329Z,27.97
2018-03-19T02:42:06.871Z,27.20
2018-03-19T02:44:35.099Z,28.63
2018-03-19T02:47:02.617Z,29.50
2018-03-19T02:49:30.131Z,27.73
2018-03-19T02:51:57.754Z,27.47
2018-03-19T02:54:25.263Z,28.37
2018-03-19T02:56:52.902Z,28.97
2018-03-19T02:59:20.573Z,30.37
2018-03-19T03:01:48.134Z,29.33
2018-03-19T03:04:15.687Z,28.13
2018-03-19T03:06:43.336Z,26.50
2018-03-19T03:09:10.923Z,27.83
2018-03-19T03:11:38.456Z,31.23
2018-03-19T03:14:06.034Z,28.73
2018-03-19T03:16:34.517Z,28.37
2018-03-19T03:19:02.053Z,29.73
2018-03-19T03:21:32.986Z,30.23
2018-03-19T03:24:00.510Z,28.63
2018-03-19T03:26:28.162Z,28.97
2018-03-19T03:28:55.730Z,28.83
2018-03-19T03:31:23.277Z,27.87
2018-03-19T03:34:09.569Z,29.60
2018-03-19T03:39:27.538Z,27.83
2018-03-19T03:41:55.137Z,28.37
2018-03-19T03:44:22.806Z,29.17
2018-03-19T03:46:50.462Z,28.70
2018-03-19T03:49:18.934Z,29.53
2018-03-19T03:51:48.468Z,32.50
2018-03-19T03:54:16.114Z,29.97
2018-03-19T03:56:43.706Z,28.37
2018-03-19T03:59:12.987Z,30.27
2018-03-19T04:01:40.636Z,30.67
2018-03-19T04:04:08.204Z,29.17
2018-03-19T04:06:35.765Z,29.70
2018-03-19T04:09:03.422Z,27.90
2018-03-19T04:11:31.025Z,29.87
2018-03-19T04:14:00.392Z,30.70
2018-03-19T04:16:28.039Z,28.93
2018-03-19T04:18:56.621Z,30.03
2018-03-19T04:21:24.231Z,32.17
2018-03-19T04:23:52.906Z,31.73
2018-03-19T04:26:20.430Z,29.80
2018-03-19T04:28:48.017Z,30.43
2018-03-19T04:31:16.563Z,30.23
2018-03-19T04:33:44.193Z,32.20
2018-03-19T04:36:11.825Z,30.77
2018-03-19T04:38:40.311Z,29.03
2018-03-19T04:41:07.992Z,31.27
2018-03-19T04:43:35.602Z,31.63
2018-03-19T04:46:03.142Z,32.30
2018-03-19T04:48:30.735Z,30.30
2018-03-19T04:50:58.308Z,30.27
2018-03-19T04:53:26.870Z,30.83
2018-03-19T04:55:54.535Z,29.83
2018-03-19T04:58:22.057Z,29.77
2018-03-19T05:00:49.672Z,31.67
2018-03-19T05:03:18.200Z,31.70
2018-03-19T05:05:45.742Z,30.73
2018-03-19T05:08:13.794Z,28.80
2018-03-19T05:10:41.373Z,31.57
2018-03-19T05:13:09.900Z,31.00
2018-03-19T05:15:37.497Z,33.30
2018-03-19T05:18:05.065Z,31.67
2018-03-19T05:20:32.659Z,28.33
2018-03-19T05:23:02.171Z,31.90
2018-03-19T05:25:30.730Z,30.97
2018-03-19T05:27:58.248Z,28.50
2018-03-19T05:30:28.526Z,27.77
2018-03-19T05:32:56.140Z,28.30
2018-03-19T05:35:24.577Z,27.37
2018-03-19T05:37:52.163Z,26.83
2018-03-19T05:40:19.671Z,28.80
2018-03-19T05:42:47.377Z,28.67
2018-03-19T05:45:14.920Z,27.93
2018-03-19T05:47:43.499Z,27.60
2018-03-19T05:50:11.164Z,26.90
2018-03-19T05:52:38.704Z,26.77
2018-03-19T05:55:06.263Z,27.57
2018-03-19T05:57:34.818Z,27.93
2018-03-19T06:00:03.399Z,26.17
2018-03-19T06:02:31.030Z,25.67
2018-03-19T06:04:59.326Z,27.57
2018-03-19T06:07:27.876Z,27.07
2018-03-19T06:09:55.380Z,25.27
2018-03-19T06:12:22.990Z,25.20
2018-03-19T06:14:50.578Z,28.67
2018-03-19T06:17:18.180Z,27.13
2018-03-19T06:19:47.883Z,27.03
2018-03-19T06:22:15.587Z,25.67
2018-03-19T06:24:43.094Z,25.83
2018-03-19T06:27:12.144Z,25.50
2018-03-19T06:29:39.980Z,24.97
2018-03-19T06:32:07.512Z,26.70
2018-03-19T06:34:35.067Z,27.43
2018-03-19T06:37:02.617Z,26.67
2018-03-19T06:39:31.195Z,26.67
2018-03-19T06:41:58.839Z,27.23
2018-03-19T06:44:28.264Z,27.13
2018-03-19T06:46:55.898Z,27.17
2018-03-19T06:49:23.506Z,27.03
2018-03-19T06:51:51.054Z,27.53
2018-03-19T06:54:18.728Z,27.73
2018-03-19T06:56:46.291Z,27.33
2018-03-19T06:59:13.883Z,26.37
2018-03-19T07:01:41.502Z,28.93
2018-03-19T07:04:09.083Z,26.93
2018-03-19T07:06:37.645Z,26.30
2018-03-19T07:09:05.942Z,25.97
2018-03-19T07:11:49.504Z,25.57
2018-03-19T07:14:17.037Z,25.50
2018-03-19T07:16:44.572Z,25.20
2018-03-19T07:19:12.145Z,27.20
2018-03-19T07:21:40.479Z,25.20
2018-03-19T07:24:09.579Z,25.00
2018-03-19T07:26:37.106Z,25.50
2018-03-19T07:29:04.610Z,25.73
2018-03-19T07:31:34.191Z,23.97
2018-03-19T07:34:01.744Z,27.43
2018-03-19T07:36:29.286Z,24.83
2018-03-19T07:38:56.835Z,26.63
2018-03-19T07:41:28.113Z,27.43
2018-03-19T07:43:55.729Z,25.17
2018-03-19T07:46:23.346Z,26.23
2018-03-19T07:48:51.843Z,25.60
2018-03-19T07:51:19.384Z,25.77
2018-03-19T07:53:47.392Z,25.63
2018-03-19T07:56:16.670Z,24.57
2018-03-19T07:58:44.271Z,25.67
2018-03-19T08:01:13.139Z,24.33
2018-03-19T08:03:41.699Z,25.73
2018-03-19T08:06:10.775Z,25.33
2018-03-19T08:08:38.434Z,25.97
2018-03-19T08:11:08.801Z,25.20
2018-03-19T08:13:37.104Z,26.50
2018-03-19T08:16:04.703Z,24.53
2018-03-19T08:18:32.368Z,25.43
2018-03-19T08:21:01.166Z,25.80
2018-03-19T08:23:29.532Z,25.60
2018-03-19T08:25:57.200Z,26.80
2018-03-19T08:28:25.718Z,25.70
2018-03-19T08:30:55.016Z,26.03
2018-03-19T08:33:23.500Z,26.90
2018-03-19T08:35:52.274Z,25.67
2018-03-19T08:38:19.871Z,26.80
2018-03-19T08:40:48.586Z,26.00
2018-03-19T08:43:17.261Z,25.67
2018-03-19T08:45:45.141Z,25.43
2018-03-19T08:48:12.819Z,25.60
2018-03-19T08:50:40.961Z,26.20
2018-03-19T08:53:10.364Z,24.20
2018-03-19T08:55:40.512Z,24.20
2018-03-19T08:58:08.916Z,26.67
2018-03-19T09:00:36.812Z,26.40
2018-03-19T09:03:04.473Z,26.13
2018-03-19T09:05:33.049Z,27.27
2018-03-19T09:08:03.579Z,25.47
2018-03-19T09:10:31.209Z,26.47
2018-03-19T09:12:58.853Z,26.87
2018-03-19T09:15:26.580Z,26.47
2018-03-19T09:17:54.830Z,26.97
2018-03-19T09:20:22.522Z,26.63
2018-03-19T09:23:08.804Z,26.10
2018-03-19T09:28:47.654Z,28.33
2018-03-19T09:31:15.546Z,26.73
2018-03-19T09:33:43.125Z,25.67
2018-03-19T09:36:12.543Z,27.50
2018-03-19T09:38:41.842Z,25.20
2018-03-19T09:41:10.370Z,26.27
2018-03-19T09:43:38.021Z,25.30
2018-03-19T09:46:06.608Z,28.53
2018-03-19T09:48:35.137Z,27.47
2018-03-19T09:51:04.935Z,27.50
2018-03-19T09:53:32.981Z,26.43
2018-03-19T09:56:00.593Z,27.87
2018-03-19T09:58:32.142Z,27.63
2018-03-19T10:00:59.682Z,27.73
2018-03-19T10:03:45.230Z,28.50
2018-03-19T10:06:15.875Z,27.40
2018-03-19T10:08:44.571Z,26.67
2018-03-19T10:14:04.430Z,29.33
2018-03-19T10:16:32.022Z,25.20
2018-03-19T10:18:59.627Z,26.77
2018-03-19T10:21:28.304Z,27.97
2018-03-19T10:24:21.598Z,26.40
2018-03-19T10:29:42.447Z,24.30
2018-03-19T10:32:10.882Z,25.07
2018-03-19T10:34:43.412Z,26.57
2018-03-19T10:37:31.809Z,26.20
2018-03-19T10:40:01.367Z,25.77
2018-03-19T10:42:31.642Z,25.27
2018-03-19T10:44:59.210Z,25.83
2018-03-19T10:50:33.375Z,25.93
2018-03-19T10:53:01.041Z,25.90
2018-03-19T10:55:28.567Z,26.83
2018-03-19T10:57:56.096Z,26.43
2018-03-19T11:00:24.721Z,26.77
2018-03-19T11:02:55.308Z,25.23
2018-03-19T11:05:29.488Z,26.83
2018-03-19T11:08:02.560Z,26.33
2018-03-19T11:10:32.090Z,25.47
2018-03-19T11:13:00.460Z,25.13
2018-03-19T11:15:28.135Z,27.13
2018-03-19T11:17:56.651Z,26.40
2018-03-19T11:20:25.121Z,26.20
2018-03-19T11:22:57.437Z,24.93
2018-03-19T11:25:25.040Z,23.50
2018-03-19T11:27:52.624Z,23.63
2018-03-19T11:30:21.854Z,23.93
2018-03-19T11:32:49.428Z,25.13
2018-03-19T11:35:18.014Z,26.10
2018-03-19T11:37:45.607Z,26.30
2018-03-19T11:40:13.151Z,27.30
2018-03-19T11:42:41.724Z,24.83
2018-03-19T11:45:09.384Z,23.37
2018-03-19T11:47:36.972Z,24.70
2018-03-19T11:50:04.594Z,24.17
2018-03-19T11:55:04.135Z,25.47
2018-03-19T11:57:50.449Z,24.10
2018-03-19T12:00:18.151Z,24.37
2018-03-19T12:05:49.881Z,25.40
2018-03-19T12:08:18.018Z,24.93
2018-03-19T12:10:46.387Z,25.30
2018-03-19T12:13:14.488Z,24.57
2018-03-19T12:15:42.053Z,23.77
2018-03-19T12:18:10.344Z,27.27
2018-03-19T12:20:38.797Z,25.27
2018-03-19T12:23:07.315Z,23.90
2018-03-19T12:25:34.837Z,24.07
2018-03-19T12:28:03.302Z,26.20
2018-03-19T12:30:30.860Z,23.77
2018-03-19T12:32:59.650Z,24.33
2018-03-19T12:35:27.268Z,29.57
2018-03-19T12:37:55.916Z,24.53
2018-03-19T12:40:24.273Z,23.20
2018-03-19T12:42:51.799Z,24.03
2018-03-19T12:45:19.337Z,23.83
2018-03-19T12:47:46.905Z,24.47
2018-03-19T12:50:14.518Z,24.13
2018-03-19T12:52:42.038Z,24.83
2018-03-19T12:55:10.626Z,25.43
2018-03-19T12:57:38.174Z,24.50
2018-03-19T13:00:05.689Z,25.17
2018-03-19T13:02:33.983Z,25.77
2018-03-19T13:05:01.513Z,25.77
2018-03-19T13:07:29.180Z,24.77
2018-03-19T13:09:56.741Z,25.80
2018-03-19T13:12:24.266Z,26.57
2018-03-19T13:14:51.940Z,25.53
2018-03-19T13:17:19.457Z,25.03
2018-03-19T13:19:47.791Z,24.43
2018-03-19T13:22:15.460Z,25.53
2018-03-19T13:24:42.971Z,25.57
2018-03-19T13:27:11.298Z,25.40
2018-03-19T13:29:39.544Z,26.73
2018-03-19T13:32:07.058Z,27.30
2018-03-19T13:34:34.610Z,27.00
2018-03-19T13:37:02.288Z,26.57
2018-03-19T13:39:30.742Z,26.40
2018-03-19T13:41:58.304Z,26.87
2018-03-19T13:44:25.908Z,25.53
2018-03-19T13:46:54.463Z,29.40
2018-03-19T13:49:22.049Z,27.60
2018-03-19T13:51:49.732Z,29.80
2018-03-19T13:54:19.022Z,28.87
2018-03-19T13:56:46.586Z,27.97
2018-03-19T13:59:14.182Z,27.67
2018-03-19T14:01:41.811Z,28.87
2018-03-19T14:04:09.398Z,29.10
2018-03-19T14:06:37.949Z,28.20
2018-03-19T14:09:06.591Z,28.77
2018-03-19T14:11:35.122Z,28.63
2018-03-19T14:14:03.621Z,27.60
2018-03-19T14:16:33.218Z,26.83
2018-03-19T14:19:00.791Z,28.73
2018-03-19T14:21:28.352Z,27.27
2018-03-19T14:23:56.034Z,28.50
2018-03-19T14:26:25.485Z,27.30
2018-03-19T14:28:54.075Z,27.20
2018-03-19T14:31:22.407Z,26.80
2018-03-19T14:36:28.133Z,28.50
2018-03-19T14:38:55.673Z,27.97
2018-03-19T14:41:23.210Z,26.50
2018-03-19T14:43:50.809Z,27.37
2018-03-19T14:46:18.440Z,27.40
2018-03-19T14:48:46.081Z,27.80
2018-03-19T14:51:13.655Z,27.00
2018-03-19T14:53:41.968Z,28.80
2018-03-19T14:56:09.862Z,30.20
2018-03-19T14:58:38.394Z,27.10
2018-03-19T15:01:06.000Z,26.63
2018-03-19T15:03:35.413Z,27.67
2018-03-19T15:06:04.110Z,27.97
2018-03-19T15:08:34.449Z,27.10
2018-03-19T15:11:03.109Z,26.73
2018-03-19T15:13:33.707Z,27.03
2018-03-19T15:16:01.317Z,28.47
2018-03-19T15:18:30.072Z,26.73
2018-03-19T15:20:57.633Z,28.47
2018-03-19T15:23:26.901Z,27.73
2018-03-19T15:25:55.245Z,25.80
2018-03-19T15:28:22.860Z,27.90
2018-03-19T15:30:51.249Z,28.30
2018-03-19T15:33:18.791Z,29.60
2018-03-19T15:35:48.098Z,28.67
2018-03-19T15:38:15.653Z,28.40
2018-03-19T15:40:43.382Z,29.27
2018-03-19T15:43:11.782Z,29.10
2018-03-19T15:45:39.398Z,31.47
2018-03-19T15:48:07.062Z,29.93
2018-03-19T15:50:36.643Z,31.43
2018-03-19T15:53:04.297Z,31.50
2018-03-19T15:55:32.077Z,31.03
2018-03-19T15:57:59.718Z,31.00
2018-03-19T16:00:27.462Z,32.63
2018-03-19T16:02:55.072Z,32.67
2018-03-19T16:05:23.566Z,31.53
2018-03-19T16:07:52.842Z,32.33
2018-03-19T16:10:20.458Z,34.13
2018-03-19T16:12:48.293Z,28.80
2018-03-19T16:15:17.865Z,32.93
2018-03-19T16:17:45.597Z,29.63
2018-03-19T16:20:13.337Z,29.03
2018-03-19T16:22:41.035Z,29.07
2018-03-19T16:25:10.107Z,28.07
2018-03-19T16:27:39.263Z,28.73
2018-03-19T16:30:07.705Z,26.23
2018-03-19T16:32:35.277Z,26.17
2018-03-19T16:35:02.890Z,26.87
2018-03-19T16:37:30.445Z,27.30
2018-03-19T16:39:58.047Z,25.80
2018-03-19T16:42:25.682Z,27.50
2018-03-19T16:44:55.146Z,27.07
2018-03-19T16:47:23.702Z,27.17
2018-03-19T16:49:53.213Z,27.50
2018-03-19T16:52:20.757Z,28.60
2018-03-19T16:54:49.178Z,28.10
2018-03-19T16:57:16.761Z,27.63
2018-03-19T16:59:44.449Z,29.30
2018-03-19T17:02:11.951Z,28.87
2018-03-19T17:04:39.561Z,27.77
2018-03-19T17:07:07.172Z,26.80
2018-03-19T17:09:35.663Z,28.07
2018-03-19T17:12:03.259Z,27.47
2018-03-19T17:14:30.907Z,26.50
2018-03-19T17:17:00.180Z,25.23
2018-03-19T17:19:27.755Z,25.30
2018-03-19T17:21:57.022Z,28.37
2018-03-19T17:24:24.613Z,25.90
2018-03-19T17:26:52.292Z,25.47
2018-03-19T17:29:19.865Z,25.90
2018-03-19T17:31:47.411Z,27.13
2018-03-19T17:34:14.997Z,29.27
2018-03-19T17:36:42.541Z,31.53
2018-03-19T17:39:10.147Z,31.90
2018-03-19T17:41:37.753Z,32.60
2018-03-19T17:44:06.075Z,34.23
2018-03-19T17:46:35.572Z,32.83
2018-03-19T17:49:03.156Z,31.90
2018-03-19T17:51:30.863Z,31.77
2018-03-19T17:53:59.147Z,32.53
2018-03-19T17:56:26.716Z,33.40
2018-03-19T17:58:55.059Z,32.97
2018-03-19T18:01:23.634Z,32.20
2018-03-19T18:03:51.181Z,34.83
2018-03-19T18:06:18.685Z,34.67
2018-03-19T18:08:46.268Z,34.33
2018-03-19T18:11:13.858Z,36.33
2018-03-19T18:13:41.419Z,33.80
2018-03-19T18:16:08.961Z,36.67
2018-03-19T18:18:36.581Z,36.83
2018-03-19T18:21:04.139Z,37.77
2018-03-19T18:23:31.754Z,35.60
2018-03-19T18:25:59.369Z,35.50
2018-03-19T18:28:26.968Z,37.00
2018-03-19T18:30:54.537Z,35.73
2018-03-19T18:33:23.018Z,33.80
2018-03-19T18:35:50.566Z,33.57
2018-03-19T18:38:18.135Z,33.17
2018-03-19T18:40:45.688Z,32.03
2018-03-19T18:43:13.242Z,34.03
2018-03-19T18:45:40.850Z,31.77
2018-03-19T18:48:08.383Z,34.80
2018-03-19T18:50:36.925Z,33.97
2018-03-19T18:53:04.563Z,37.40
2018-03-19T18:55:33.014Z,31.57
2018-03-19T18:58:00.661Z,34.43
2018-03-19T19:00:29.124Z,35.17
2018-03-19T19:02:57.307Z,33.77
2018-03-19T19:05:25.622Z,34.03
2018-03-19T19:07:53.191Z,30.07
2018-03-19T19:10:20.744Z,33.83
2018-03-19T19:12:48.372Z,28.50
2018-03-19T19:15:18.814Z,28.80
2018-03-19T19:17:49.264Z,28.57
2018-03-19T19:20:16.910Z,27.37
2018-03-19T19:22:47.183Z,26.50
2018-03-19T19:25:14.735Z,26.50
2018-03-19T19:27:42.311Z,26.37
2018-03-19T19:33:41.754Z,26.60
2018-03-19T19:36:09.543Z,26.43
2018-03-19T19:38:37.805Z,26.63
2018-03-19T19:44:09.669Z,27.23
2018-03-19T19:46:37.279Z,27.30
2018-03-19T19:49:05.001Z,25.70
2018-03-19T19:51:32.592Z,25.63
2018-03-19T19:54:03.370Z,26.80
2018-03-19T19:56:30.994Z,26.67
2018-03-19T19:58:58.689Z,27.60
2018-03-19T20:01:28.361Z,27.87
2018-03-19T20:03:55.975Z,26.10
2018-03-19T20:06:23.595Z,26.73
2018-03-19T20:08:51.220Z,26.93
2018-03-19T20:11:18.799Z,25.70
2018-03-19T20:13:46.339Z,24.60
2018-03-19T20:16:14.003Z,25.10
2018-03-19T20:18:41.566Z,24.97
2018-03-19T20:21:11.167Z,25.93
2018-03-19T20:23:39.697Z,26.60
2018-03-19T20:26:07.317Z,24.90
2018-03-19T20:28:35.923Z,24.37
2018-03-19T20:31:04.546Z,25.20
2018-03-19T20:33:32.200Z,26.03
2018-03-19T20:36:00.697Z,24.33
2018-03-19T20:38:28.315Z,24.60
2018-03-19T20:40:55.926Z,25.23
2018-03-19T20:43:24.383Z,25.43
2018-03-19T20:45:52.587Z,24.27
2018-03-19T20:48:20.209Z,24.67
2018-03-19T20:50:48.607Z,25.13
2018-03-19T20:53:19.439Z,24.43
2018-03-19T20:55:46.969Z,23.13
2018-03-19T20:58:15.245Z,24.63
2018-03-19T21:00:43.521Z,23.57
2018-03-19T21:03:11.820Z,25.70
2018-03-19T21:05:41.637Z,25.17
2018-03-19T21:08:09.203Z,24.83
2018-03-19T21:10:36.757Z,25.40
2018-03-19T21:13:06.051Z,25.87
2018-03-19T21:15:33.606Z,24.77
2018-03-19T21:18:02.160Z,23.57
2018-03-19T21:20:29.707Z,25.00
2018-03-19T21:22:59.672Z,25.60
2018-03-19T21:25:27.219Z,24.77
2018-03-19T21:27:54.810Z,25.60
2018-03-19T21:30:22.453Z,25.27
2018-03-19T21:32:50.017Z,26.37
2018-03-19T21:35:17.589Z,24.80
2018-03-19T21:37:45.184Z,25.90
2018-03-19T21:40:13.742Z,27.10
2018-03-19T21:42:42.240Z,26.57
2018-03-19T21:45:09.844Z,26.03
2018-03-19T21:47:37.388Z,27.10
2018-03-19T21:50:06.787Z,24.77
2018-03-19T21:52:35.071Z,25.27
2018-03-19T21:55:03.367Z,26.13
2018-03-19T21:57:31.823Z,25.73
2018-03-19T21:59:59.492Z,25.60
2018-03-19T22:02:27.772Z,26.77
2018-03-19T22:04:56.902Z,26.53
2018-03-19T22:07:24.578Z,27.77
2018-03-19T22:09:52.123Z,27.27
2018-03-19T22:12:20.397Z,27.77
2018-03-19T22:14:48.102Z,26.87
2018-03-19T22:17:15.700Z,26.83
2018-03-19T22:19:43.304Z,26.83
2018-03-19T22:22:12.627Z,26.63
2018-03-19T22:24:40.182Z,26.43
2018-03-19T22:27:08.634Z,28.67
2018-03-19T22:29:36.335Z,28.23
2018-03-19T22:32:03.913Z,26.93
2018-03-19T22:34:32.391Z,27.53
2018-03-19T22:36:59.925Z,29.03
2018-03-19T22:39:29.870Z,27.80
2018-03-19T22:41:57.416Z,28.70
2018-03-19T22:44:25.848Z,27.07
2018-03-19T22:46:53.359Z,28.53
2018-03-19T22:49:22.713Z,28.43
2018-03-19T22:51:50.261Z,26.30
2018-03-19T22:54:19.830Z,27.47
2018-03-19T22:56:47.349Z,28.87
2018-03-19T22:59:16.820Z,28.70
2018-03-19T23:01:46.716Z,28.73
2018-03-19T23:04:20.164Z,29.27
2018-03-19T23:06:47.704Z,31.53
2018-03-19T23:09:16.094Z,28.73
2018-03-19T23:11:43.647Z,28.53
2018-03-19T23:14:12.869Z,29.17
2018-03-19T23:16:40.423Z,29.77
2018-03-19T23:19:08.904Z,30.03
2018-03-19T23:21:37.212Z,30.60
2018-03-19T23:24:04.758Z,28.87
2018-03-19T23:26:32.338Z,27.93
2018-03-19T23:28:59.862Z,28.23
2018-03-19T23:31:28.213Z,29.13
2018-03-19T23:33:55.833Z,29.23
2018-03-19T23:36:23.385Z,29.87
2018-03-19T23:38:50.981Z,31.50
2018-03-19T23:41:19.467Z,29.20
2018-03-19T23:43:46.964Z,29.53
2018-03-19T23:46:14.494Z,29.13
2018-03-19T23:48:42.971Z,31.23
2018-03-19T23:51:10.609Z,30.37
2018-03-19T23:53:38.943Z,29.50
2018-03-19T23:56:08.431Z,28.73
2018-03-19T23:58:36.697Z,30.13
